createdAt,value
2023-05-02T00:00:15.446Z,41.32
2023-05-02T00:00:46.852Z,41.13
2023-05-02T00:01:18.258Z,41.35
2023-05-02T00:01:49.817Z,41.11
2023-05-02T00:02:21.327Z,41.39
2023-05-02T00:02:52.987Z,41.07
2023-05-02T00:03:24.693Z,41.63
2023-05-02T00:03:56.266Z,41.13
2023-05-02T00:04:27.806Z,41.67
2023-05-02T00:04:59.220Z,41.28
2023-05-02T00:05:30.626Z,40.91
2023-05-02T00:06:02.600Z,41.63
2023-05-02T00:06:34.111Z,41.63
2023-05-02T00:07:05.574Z,41.39
2023-05-02T00:07:37.008Z,41.28
2023-05-02T00:08:08.427Z,41.71
2023-05-02T00:08:39.822Z,41.32
2023-05-02T00:09:11.220Z,41.01
2023-05-02T00:09:42.630Z,41.05
2023-05-02T00:10:14.036Z,41.35
2023-05-02T00:10:45.470Z,40.99
2023-05-02T00:11:16.864Z,41.48
2023-05-02T00:11:48.309Z,41.33
2023-05-02T00:12:19.719Z,41.50
2023-05-02T00:12:51.135Z,40.95
2023-05-02T00:13:22.550Z,41.18
2023-05-02T00:13:53.953Z,40.95
2023-05-02T00:14:25.334Z,41.24
2023-05-02T00:14:56.738Z,41.28
2023-05-02T00:15:28.151Z,41.57
2023-05-02T00:15:59.585Z,41.15
2023-05-02T00:16:31.159Z,41.06
2023-05-02T00:17:02.690Z,41.48
2023-05-02T00:17:34.270Z,41.40
2023-05-02T00:18:05.717Z,41.54
2023-05-02T00:18:37.161Z,41.41
2023-05-02T00:19:08.578Z,41.16
2023-05-02T00:19:39.976Z,41.27
2023-05-02T00:20:11.402Z,41.31
2023-05-02T00:20:42.807Z,41.66
2023-05-02T00:21:14.204Z,41.12
2023-05-02T00:21:45.616Z,41.57
2023-05-02T00:22:17.070Z,41.35
2023-05-02T00:22:48.478Z,41.52
2023-05-02T00:23:19.884Z,41.35
2023-05-02T00:23:51.301Z,41.52
2023-05-02T00:24:22.701Z,41.50
2023-05-02T00:24:54.093Z,41.03
2023-05-02T00:25:25.543Z,41.41
2023-05-02T00:25:56.958Z,41.60
2023-05-02T00:26:28.374Z,41.18
2023-05-02T00:26:59.787Z,41.35
2023-05-02T00:27:31.211Z,41.75
2023-05-02T00:28:02.641Z,41.14
2023-05-02T00:28:34.037Z,41.34
2023-05-02T00:29:05.434Z,41.08
2023-05-02T00:29:36.838Z,41.18
2023-05-02T00:30:08.239Z,41.23
2023-05-02T00:30:39.678Z,41.32
2023-05-02T00:31:11.193Z,41.20
2023-05-02T00:31:42.753Z,41.26
2023-05-02T00:32:14.338Z,41.29
2023-05-02T00:32:45.955Z,41.15
2023-05-02T00:33:17.461Z,41.15
2023-05-02T00:33:48.858Z,41.63
2023-05-02T00:34:20.256Z,41.25
2023-05-02T00:34:51.656Z,41.39
2023-05-02T00:35:23.067Z,41.14
2023-05-02T00:35:54.469Z,41.49
2023-05-02T00:36:25.886Z,41.24
2023-05-02T00:36:57.302Z,41.26
2023-05-02T00:37:28.744Z,41.29
2023-05-02T00:38:00.190Z,41.69
2023-05-02T00:38:31.607Z,41.63
2023-05-02T00:39:03.061Z,41.68
2023-05-02T00:39:34.472Z,41.34
2023-05-02T00:40:05.883Z,41.09
2023-05-02T00:40:37.305Z,41.45
2023-05-02T00:41:08.706Z,41.71
2023-05-02T00:41:40.119Z,41.62
2023-05-02T00:42:11.550Z,41.51
2023-05-02T00:42:42.962Z,41.70
2023-05-02T00:43:14.406Z,41.07
2023-05-02T00:43:45.825Z,41.35
2023-05-02T00:44:17.217Z,41.49
2023-05-02T00:44:48.623Z,41.74
2023-05-02T00:45:20.005Z,41.59
2023-05-02T00:45:51.420Z,41.12
2023-05-02T00:46:22.869Z,41.12
2023-05-02T00:46:54.331Z,41.45
2023-05-02T00:47:25.818Z,41.88
2023-05-02T00:47:57.268Z,41.20
2023-05-02T00:48:28.746Z,41.39
2023-05-02T00:49:00.144Z,41.21
2023-05-02T00:49:31.533Z,41.27
2023-05-02T00:50:03.121Z,41.57
2023-05-02T00:50:34.643Z,41.65
2023-05-02T00:51:06.058Z,41.49
2023-05-02T00:51:37.486Z,41.76
2023-05-02T00:52:08.882Z,41.42
2023-05-02T00:52:40.293Z,41.19
2023-05-02T00:53:11.721Z,41.59
2023-05-02T00:53:43.182Z,41.52
2023-05-02T00:54:14.594Z,41.49
2023-05-02T00:54:46.008Z,41.40
2023-05-02T00:55:17.419Z,41.49
2023-05-02T00:55:48.838Z,41.73
2023-05-02T00:56:20.234Z,41.34
2023-05-02T00:56:51.648Z,41.28
2023-05-02T00:57:23.141Z,41.69
2023-05-02T00:57:54.592Z,41.13
2023-05-02T00:58:26.005Z,41.70
2023-05-02T00:58:57.431Z,41.76
2023-05-02T00:59:28.841Z,41.65
2023-05-02T01:00:00.667Z,41.39
2023-05-02T01:00:32.245Z,41.50
2023-05-02T01:01:03.641Z,41.34
2023-05-02T01:01:35.146Z,41.39
2023-05-02T01:02:06.714Z,41.38
2023-05-02T01:02:38.272Z,41.46
2023-05-02T01:03:09.932Z,41.28
2023-05-02T01:03:41.483Z,41.23
2023-05-02T01:04:13.124Z,41.71
2023-05-02T01:04:44.551Z,41.45
2023-05-02T01:05:15.959Z,41.47
2023-05-02T01:05:47.366Z,41.19
2023-05-02T01:06:18.817Z,41.75
2023-05-02T01:06:50.424Z,41.19
2023-05-02T01:07:21.896Z,41.65
2023-05-02T01:07:53.319Z,41.09
2023-05-02T01:08:24.739Z,41.86
2023-05-02T01:08:56.167Z,41.23
2023-05-02T01:09:27.614Z,41.83
2023-05-02T01:09:59.292Z,41.87
2023-05-02T01:10:30.896Z,41.49
2023-05-02T01:11:02.297Z,41.76
2023-05-02T01:11:33.717Z,41.70
2023-05-02T01:12:05.142Z,41.65
2023-05-02T01:12:36.550Z,41.50
2023-05-02T01:13:07.976Z,41.35
2023-05-02T01:13:39.385Z,41.69
2023-05-02T01:14:10.765Z,41.46
2023-05-02T01:14:42.225Z,41.29
2023-05-02T01:15:13.623Z,41.68
2023-05-02T01:15:45.033Z,41.49
2023-05-02T01:16:16.629Z,41.65
2023-05-02T01:16:48.056Z,41.55
2023-05-02T01:17:19.511Z,41.26
2023-05-02T01:17:50.971Z,40.99
2023-05-02T01:18:22.437Z,41.48
2023-05-02T01:18:53.862Z,41.60
2023-05-02T01:19:25.271Z,41.32
2023-05-02T01:19:56.726Z,41.24
2023-05-02T01:20:28.164Z,41.26
2023-05-02T01:20:59.562Z,41.34
2023-05-02T01:21:30.955Z,41.43
2023-05-02T01:22:02.360Z,41.72
2023-05-02T01:22:33.804Z,41.11
2023-05-02T01:23:05.215Z,41.61
2023-05-02T01:23:36.610Z,41.34
2023-05-02T01:24:08.014Z,41.44
2023-05-02T01:24:39.411Z,41.37
2023-05-02T01:25:10.862Z,41.68
2023-05-02T01:25:42.276Z,41.36
2023-05-02T01:26:13.660Z,41.74
2023-05-02T01:26:45.047Z,41.58
2023-05-02T01:27:16.458Z,41.41
2023-05-02T01:27:47.867Z,41.81
2023-05-02T01:28:19.281Z,41.98
2023-05-02T01:28:50.679Z,41.68
2023-05-02T01:29:22.126Z,41.36
2023-05-02T01:29:53.540Z,41.60
2023-05-02T01:30:24.992Z,41.44
2023-05-02T01:30:56.387Z,41.58
2023-05-02T01:31:27.874Z,41.55
2023-05-02T01:31:59.387Z,41.66
2023-05-02T01:32:31.076Z,41.83
2023-05-02T01:33:02.632Z,41.48
2023-05-02T01:33:34.053Z,41.39
2023-05-02T01:34:05.490Z,41.41
2023-05-02T01:34:36.895Z,41.52
2023-05-02T01:35:08.334Z,41.38
2023-05-02T01:35:39.777Z,41.75
2023-05-02T01:36:11.186Z,41.61
2023-05-02T01:36:42.585Z,41.35
2023-05-02T01:37:13.985Z,41.49
2023-05-02T01:37:45.397Z,41.30
2023-05-02T01:38:16.828Z,41.46
2023-05-02T01:38:48.265Z,41.28
2023-05-02T01:39:19.682Z,41.74
2023-05-02T01:39:51.076Z,41.54
2023-05-02T01:40:22.502Z,41.59
2023-05-02T01:40:53.966Z,41.47
2023-05-02T01:41:25.371Z,41.40
2023-05-02T01:41:56.776Z,41.74
2023-05-02T01:42:28.180Z,41.58
2023-05-02T01:42:59.611Z,40.90
2023-05-02T01:43:31.054Z,41.39
2023-05-02T01:44:02.465Z,41.81
2023-05-02T01:44:33.866Z,41.53
2023-05-02T01:45:05.272Z,41.25
2023-05-02T01:45:36.734Z,41.62
2023-05-02T01:46:08.144Z,41.68
2023-05-02T01:46:39.588Z,41.84
2023-05-02T01:47:11.157Z,41.58
2023-05-02T01:47:42.723Z,41.48
2023-05-02T01:48:14.172Z,41.70
2023-05-02T01:48:45.617Z,41.54
2023-05-02T01:49:17.030Z,41.79
2023-05-02T01:49:48.436Z,41.63
2023-05-02T01:50:19.863Z,41.33
2023-05-02T01:50:51.284Z,41.36
2023-05-02T01:51:22.690Z,41.68
2023-05-02T01:51:54.149Z,41.80
2023-05-02T01:52:25.547Z,41.37
2023-05-02T01:52:56.947Z,41.40
2023-05-02T01:53:28.342Z,41.72
2023-05-02T01:53:59.749Z,41.46
2023-05-02T01:54:31.152Z,41.50
2023-05-02T01:55:02.554Z,41.69
2023-05-02T01:55:33.979Z,41.42
2023-05-02T01:56:05.399Z,41.49
2023-05-02T01:56:36.872Z,41.41
2023-05-02T01:57:08.276Z,41.42
2023-05-02T01:57:39.700Z,41.92
2023-05-02T01:58:11.097Z,41.37
2023-05-02T01:58:42.498Z,41.55
2023-05-02T01:59:13.887Z,41.30
2023-05-02T01:59:45.317Z,41.50
2023-05-02T02:00:16.725Z,41.78
2023-05-02T02:00:48.209Z,41.65
2023-05-02T02:01:19.827Z,41.85
2023-05-02T02:01:51.324Z,41.48
2023-05-02T02:02:22.747Z,41.72
2023-05-02T02:02:54.170Z,41.59
2023-05-02T02:03:25.655Z,41.27
2023-05-02T02:03:57.171Z,41.70
2023-05-02T02:04:28.667Z,41.36
2023-05-02T02:05:00.128Z,41.31
2023-05-02T02:05:31.580Z,41.23
2023-05-02T02:06:02.976Z,41.61
2023-05-02T02:06:34.463Z,41.27
2023-05-02T02:07:05.942Z,41.57
2023-05-02T02:07:37.357Z,41.86
2023-05-02T02:08:08.776Z,41.56
2023-05-02T02:08:40.192Z,41.58
2023-05-02T02:09:11.616Z,41.57
2023-05-02T02:09:43.021Z,41.98
2023-05-02T02:10:14.431Z,41.29
2023-05-02T02:10:45.903Z,41.63
2023-05-02T02:11:17.338Z,41.67
2023-05-02T02:11:48.730Z,41.72
2023-05-02T02:12:20.166Z,41.85
2023-05-02T02:12:51.587Z,41.61
2023-05-02T02:13:23.001Z,41.92
2023-05-02T02:13:54.398Z,41.92
2023-05-02T02:14:25.797Z,41.48
2023-05-02T02:14:57.214Z,41.65
2023-05-02T02:15:28.617Z,41.42
2023-05-02T02:16:00.032Z,41.79
2023-05-02T02:16:31.481Z,41.90
2023-05-02T02:17:02.969Z,41.52
2023-05-02T02:17:34.480Z,41.33
2023-05-02T02:18:05.940Z,41.55
2023-05-02T02:18:37.393Z,41.93
2023-05-02T02:19:08.792Z,41.74
2023-05-02T02:19:40.186Z,41.60
2023-05-02T02:20:11.602Z,41.22
2023-05-02T02:20:43.034Z,41.29
2023-05-02T02:21:14.422Z,41.93
2023-05-02T02:21:45.830Z,41.52
2023-05-02T02:22:17.240Z,41.64
2023-05-02T02:22:48.674Z,41.79
2023-05-02T02:23:20.069Z,41.70
2023-05-02T02:23:51.490Z,41.63
2023-05-02T02:24:22.924Z,42.02
2023-05-02T02:24:54.598Z,41.77
2023-05-02T02:25:26.068Z,41.40
2023-05-02T02:25:57.463Z,41.60
2023-05-02T02:26:28.887Z,41.69
2023-05-02T02:27:00.277Z,41.67
2023-05-02T02:27:31.688Z,41.84
2023-05-02T02:28:03.135Z,41.70
2023-05-02T02:28:34.557Z,41.77
2023-05-02T02:29:05.981Z,41.65
2023-05-02T02:29:37.373Z,41.47
2023-05-02T02:30:08.776Z,41.71
2023-05-02T02:30:40.245Z,42.03
2023-05-02T02:31:11.742Z,41.72
2023-05-02T02:31:43.157Z,41.70
2023-05-02T02:32:14.569Z,41.46
2023-05-02T02:32:46.123Z,41.38
2023-05-02T02:33:17.573Z,41.65
2023-05-02T02:33:49.018Z,41.55
2023-05-02T02:34:20.453Z,41.69
2023-05-02T02:34:51.854Z,41.70
2023-05-02T02:35:23.264Z,41.69
2023-05-02T02:35:54.667Z,42.05
2023-05-02T02:36:26.064Z,41.82
2023-05-02T02:36:57.482Z,41.80
2023-05-02T02:37:28.889Z,41.68
2023-05-02T02:38:00.311Z,41.70
2023-05-02T02:38:31.765Z,41.72
2023-05-02T02:39:03.230Z,41.56
2023-05-02T02:39:34.642Z,41.83
2023-05-02T02:40:06.048Z,41.39
2023-05-02T02:40:37.459Z,41.75
2023-05-02T02:41:08.849Z,41.76
2023-05-02T02:41:40.254Z,41.32
2023-05-02T02:42:11.667Z,41.37
2023-05-02T02:42:43.080Z,41.90
2023-05-02T02:43:14.499Z,42.03
2023-05-02T02:43:45.954Z,41.41
2023-05-02T02:44:17.403Z,41.59
2023-05-02T02:44:48.827Z,41.43
2023-05-02T02:45:20.223Z,41.59
2023-05-02T02:45:51.667Z,41.52
2023-05-02T02:46:23.194Z,41.77
2023-05-02T02:46:54.618Z,41.85
2023-05-02T02:47:26.043Z,41.74
2023-05-02T02:47:57.518Z,41.93
2023-05-02T02:48:28.966Z,41.97
2023-05-02T02:49:00.362Z,41.60
2023-05-02T02:49:31.783Z,41.86
2023-05-02T02:50:03.214Z,42.02
2023-05-02T02:50:34.618Z,41.44
2023-05-02T02:51:06.017Z,41.83
2023-05-02T02:51:37.414Z,41.73
2023-05-02T02:52:08.811Z,41.84
2023-05-02T02:52:40.212Z,41.92
2023-05-02T02:53:11.619Z,41.43
2023-05-02T02:53:43.027Z,41.47
2023-05-02T02:54:25.823Z,41.57
2023-05-02T02:54:58.636Z,41.64
2023-05-02T02:55:30.039Z,41.39
2023-05-02T02:56:01.474Z,41.94
2023-05-02T02:56:32.883Z,41.94
2023-05-02T02:57:04.295Z,42.02
2023-05-02T02:57:35.719Z,42.08
2023-05-02T02:58:07.143Z,41.83
2023-05-02T02:58:38.572Z,41.55
2023-05-02T02:59:10.014Z,41.79
2023-05-02T02:59:41.464Z,41.67
2023-05-02T03:00:12.930Z,41.98
2023-05-02T03:00:44.334Z,41.96
2023-05-02T03:01:15.736Z,41.80
2023-05-02T03:01:47.232Z,42.18
2023-05-02T03:02:18.661Z,41.92
2023-05-02T03:02:50.105Z,41.48
2023-05-02T03:03:21.635Z,41.76
2023-05-02T03:03:53.161Z,41.83
2023-05-02T03:04:24.631Z,41.94
2023-05-02T03:04:56.030Z,41.62
2023-05-02T03:05:27.477Z,41.97
2023-05-02T03:05:58.907Z,42.20
2023-05-02T03:06:30.320Z,41.56
2023-05-02T03:07:01.757Z,42.00
2023-05-02T03:07:33.175Z,41.72
2023-05-02T03:08:04.578Z,41.58
2023-05-02T03:08:36.000Z,41.97
2023-05-02T03:09:07.390Z,41.96
2023-05-02T03:09:38.825Z,41.89
2023-05-02T03:10:10.230Z,41.87
2023-05-02T03:10:41.682Z,42.00
2023-05-02T03:11:13.086Z,41.91
2023-05-02T03:11:44.498Z,42.07
2023-05-02T03:12:15.903Z,41.54
2023-05-02T03:12:47.327Z,41.81
2023-05-02T03:13:18.725Z,41.87
2023-05-02T03:13:50.140Z,41.44
2023-05-02T03:14:21.545Z,42.01
2023-05-02T03:14:52.990Z,41.88
2023-05-02T03:15:24.431Z,41.84
2023-05-02T03:15:55.894Z,41.88
2023-05-02T03:16:27.396Z,41.60
2023-05-02T03:16:58.882Z,41.92
2023-05-02T03:17:30.327Z,41.64
2023-05-02T03:18:01.798Z,41.84
2023-05-02T03:18:33.257Z,41.54
2023-05-02T03:19:04.683Z,41.72
2023-05-02T03:19:36.106Z,41.72
2023-05-02T03:20:07.531Z,41.66
2023-05-02T03:20:38.977Z,42.04
2023-05-02T03:21:10.371Z,41.90
2023-05-02T03:21:41.825Z,41.82
2023-05-02T03:22:13.242Z,42.06
2023-05-02T03:22:44.656Z,41.87
2023-05-02T03:23:16.059Z,41.89
2023-05-02T03:23:47.465Z,41.85
2023-05-02T03:24:19.361Z,41.53
2023-05-02T03:24:50.931Z,42.02
2023-05-02T03:25:22.348Z,41.58
2023-05-02T03:25:53.821Z,41.76
2023-05-02T03:26:25.220Z,41.90
2023-05-02T03:26:56.620Z,41.85
2023-05-02T03:27:28.049Z,42.10
2023-05-02T03:27:59.448Z,41.93
2023-05-02T03:28:30.888Z,41.96
2023-05-02T03:29:02.285Z,41.78
2023-05-02T03:29:33.728Z,41.42
2023-05-02T03:30:05.142Z,42.00
2023-05-02T03:30:36.558Z,41.70
2023-05-02T03:31:08.017Z,42.10
2023-05-02T03:31:39.468Z,41.52
2023-05-02T03:32:11.035Z,42.03
2023-05-02T03:32:42.564Z,41.90
2023-05-02T03:33:14.139Z,42.21
2023-05-02T03:33:45.661Z,41.69
2023-05-02T03:34:17.068Z,41.76
2023-05-02T03:34:48.466Z,41.96
2023-05-02T03:35:19.878Z,42.07
2023-05-02T03:35:51.304Z,42.36
2023-05-02T03:36:22.731Z,41.93
2023-05-02T03:36:54.127Z,41.99
2023-05-02T03:37:25.538Z,42.08
2023-05-02T03:37:56.947Z,41.76
2023-05-02T03:38:28.371Z,41.93
2023-05-02T03:38:59.787Z,42.18
2023-05-02T03:39:31.202Z,41.59
2023-05-02T03:40:02.736Z,41.62
2023-05-02T03:40:34.330Z,41.87
2023-05-02T03:41:05.746Z,41.94
2023-05-02T03:41:37.280Z,41.89
2023-05-02T03:42:08.750Z,42.02
2023-05-02T03:42:40.183Z,41.83
2023-05-02T03:43:11.619Z,41.99
2023-05-02T03:43:43.021Z,41.99
2023-05-02T03:44:14.444Z,41.85
2023-05-02T03:44:45.852Z,41.90
2023-05-02T03:45:17.257Z,41.86
2023-05-02T03:45:48.910Z,42.04
2023-05-02T03:46:20.373Z,42.25
2023-05-02T03:46:51.879Z,42.11
2023-05-02T03:47:23.398Z,42.17
2023-05-02T03:47:54.869Z,42.02
2023-05-02T03:48:26.285Z,42.14
2023-05-02T03:48:57.699Z,41.88
2023-05-02T03:49:29.132Z,42.13
2023-05-02T03:50:00.949Z,42.19
2023-05-02T03:50:32.597Z,42.44
2023-05-02T03:51:04.002Z,42.03
2023-05-02T03:51:35.451Z,41.89
2023-05-02T03:52:06.897Z,42.00
2023-05-02T03:52:38.387Z,42.36
2023-05-02T03:53:09.786Z,42.07
2023-05-02T03:53:41.220Z,42.07
2023-05-02T03:54:12.612Z,41.90
2023-05-02T03:54:44.013Z,41.79
2023-05-02T03:55:15.399Z,42.36
2023-05-02T03:55:46.816Z,42.00
2023-05-02T03:56:18.237Z,42.10
2023-05-02T03:56:49.664Z,41.84
2023-05-02T03:57:21.074Z,42.03
2023-05-02T03:57:52.480Z,41.71
2023-05-02T03:58:23.872Z,42.12
2023-05-02T03:58:55.292Z,42.01
2023-05-02T03:59:26.712Z,42.30
2023-05-02T03:59:58.320Z,41.80
2023-05-02T04:00:29.879Z,42.33
2023-05-02T04:01:01.294Z,41.77
2023-05-02T04:01:32.726Z,41.85
2023-05-02T04:02:04.218Z,41.85
2023-05-02T04:02:35.776Z,41.88
2023-05-02T04:03:07.384Z,42.06
2023-05-02T04:03:38.973Z,42.07
2023-05-02T04:04:10.491Z,41.93
2023-05-02T04:04:42.061Z,41.97
2023-05-02T04:05:13.577Z,42.09
2023-05-02T04:05:44.984Z,42.06
2023-05-02T04:06:16.410Z,41.80
2023-05-02T04:06:48.008Z,42.08
2023-05-02T04:07:19.773Z,42.38
2023-05-02T04:07:51.294Z,42.35
2023-05-02T04:08:22.705Z,41.94
2023-05-02T04:08:54.084Z,42.20
2023-05-02T04:09:25.697Z,42.01
2023-05-02T04:09:57.334Z,41.86
2023-05-02T04:10:28.842Z,41.79
2023-05-02T04:11:00.246Z,42.24
2023-05-02T04:11:31.677Z,42.25
2023-05-02T04:12:03.120Z,42.19
2023-05-02T04:12:34.528Z,41.86
2023-05-02T04:13:05.933Z,42.00
2023-05-02T04:13:37.414Z,41.86
2023-05-02T04:14:08.830Z,41.83
2023-05-02T04:14:40.244Z,42.47
2023-05-02T04:15:11.674Z,42.15
2023-05-02T04:15:43.092Z,42.00
2023-05-02T04:16:14.551Z,42.33
2023-05-02T04:16:46.046Z,41.84
2023-05-02T04:17:17.489Z,42.15
2023-05-02T04:17:49.010Z,41.87
2023-05-02T04:18:20.428Z,42.62
2023-05-02T04:18:51.864Z,42.13
2023-05-02T04:19:23.270Z,42.20
2023-05-02T04:19:54.676Z,42.30
2023-05-02T04:20:26.072Z,42.21
2023-05-02T04:20:57.462Z,42.08
2023-05-02T04:21:28.874Z,42.12
2023-05-02T04:22:00.323Z,42.13
2023-05-02T04:22:31.722Z,42.02
2023-05-02T04:23:03.134Z,42.56
2023-05-02T04:23:34.526Z,42.48
2023-05-02T04:24:05.933Z,41.95
2023-05-02T04:24:37.392Z,42.45
2023-05-02T04:25:08.792Z,42.28
2023-05-02T04:25:40.215Z,42.52
2023-05-02T04:26:11.597Z,42.53
2023-05-02T04:26:42.995Z,42.38
2023-05-02T04:27:15.487Z,42.23
2023-05-02T04:27:47.001Z,41.90
2023-05-02T04:28:18.410Z,42.46
2023-05-02T04:28:49.831Z,42.14
2023-05-02T04:29:21.240Z,42.26
2023-05-02T04:29:52.658Z,41.94
2023-05-02T04:30:24.080Z,42.12
2023-05-02T04:30:55.548Z,41.87
2023-05-02T04:31:27.130Z,42.20
2023-05-02T04:31:58.659Z,41.97
2023-05-02T04:32:30.105Z,42.06
2023-05-02T04:33:01.569Z,42.40
2023-05-02T04:33:33.068Z,41.97
2023-05-02T04:34:04.489Z,42.45
2023-05-02T04:34:35.915Z,42.62
2023-05-02T04:35:07.333Z,42.42
2023-05-02T04:35:38.763Z,42.30
2023-05-02T04:36:10.178Z,42.06
2023-05-02T04:36:41.592Z,42.39
2023-05-02T04:37:13.024Z,42.42
2023-05-02T04:37:44.452Z,42.23
2023-05-02T04:38:15.856Z,42.09
2023-05-02T04:38:47.262Z,41.96
2023-05-02T04:39:18.726Z,41.88
2023-05-02T04:39:50.117Z,41.96
2023-05-02T04:40:21.532Z,42.12
2023-05-02T04:40:52.939Z,42.04
2023-05-02T04:41:24.362Z,42.12
2023-05-02T04:41:55.813Z,42.16
2023-05-02T04:42:27.241Z,41.92
2023-05-02T04:42:58.651Z,42.46
2023-05-02T04:43:30.040Z,42.35
2023-05-02T04:44:01.466Z,42.47
2023-05-02T04:44:32.865Z,42.32
2023-05-02T04:45:04.272Z,42.13
2023-05-02T04:45:35.678Z,42.44
2023-05-02T04:46:07.125Z,42.35
2023-05-02T04:46:38.579Z,42.12
2023-05-02T04:47:10.045Z,42.07
2023-05-02T04:47:41.508Z,42.48
2023-05-02T04:48:13.055Z,42.40
2023-05-02T04:48:44.513Z,42.62
2023-05-02T04:49:15.915Z,42.20
2023-05-02T04:49:47.323Z,42.03
2023-05-02T04:50:18.726Z,41.96
2023-05-02T04:50:50.125Z,42.56
2023-05-02T04:51:21.547Z,42.74
2023-05-02T04:51:52.958Z,42.68
2023-05-02T04:52:24.393Z,41.92
2023-05-02T04:52:55.811Z,42.08
2023-05-02T04:53:27.197Z,41.99
2023-05-02T04:53:58.598Z,42.25
2023-05-02T04:54:29.993Z,42.15
2023-05-02T04:55:01.447Z,42.89
2023-05-02T04:55:32.864Z,42.29
2023-05-02T04:56:04.268Z,42.28
2023-05-02T04:56:35.687Z,42.09
2023-05-02T04:57:07.155Z,42.14
2023-05-02T04:57:38.561Z,42.19
2023-05-02T04:58:09.966Z,42.34
2023-05-02T04:58:41.397Z,42.01
2023-05-02T04:59:12.819Z,42.29
2023-05-02T04:59:44.225Z,42.19
2023-05-02T05:00:15.641Z,41.98
2023-05-02T05:00:47.090Z,42.21
2023-05-02T05:01:18.517Z,42.66
2023-05-02T05:01:50.024Z,42.37
2023-05-02T05:02:21.631Z,42.44
2023-05-02T05:02:53.131Z,42.40
2023-05-02T05:03:24.765Z,42.65
2023-05-02T05:03:56.480Z,42.27
2023-05-02T05:04:27.994Z,42.22
2023-05-02T05:04:59.511Z,42.29
2023-05-02T05:05:31.031Z,42.56
2023-05-02T05:06:02.619Z,42.67
2023-05-02T05:06:34.197Z,42.75
2023-05-02T05:07:05.679Z,42.59
2023-05-02T05:07:37.116Z,42.39
2023-05-02T05:08:08.520Z,42.14
2023-05-02T05:08:39.985Z,42.38
2023-05-02T05:09:11.412Z,42.24
2023-05-02T05:09:42.827Z,42.68
2023-05-02T05:10:14.243Z,42.17
2023-05-02T05:10:45.656Z,42.46
2023-05-02T05:11:17.079Z,42.04
2023-05-02T05:11:48.477Z,42.06
2023-05-02T05:12:19.914Z,42.43
2023-05-02T05:12:51.321Z,42.54
2023-05-02T05:13:22.724Z,42.65
2023-05-02T05:13:54.148Z,42.34
2023-05-02T05:14:25.536Z,42.20
2023-05-02T05:14:56.928Z,42.29
2023-05-02T05:15:28.350Z,42.66
2023-05-02T05:15:59.878Z,42.79
2023-05-02T05:16:31.572Z,42.74
2023-05-02T05:17:03.021Z,42.23
2023-05-02T05:17:34.534Z,42.56
2023-05-02T05:18:05.996Z,42.02
2023-05-02T05:18:37.469Z,42.63
2023-05-02T05:19:08.883Z,42.55
2023-05-02T05:19:40.292Z,41.99
2023-05-02T05:20:11.707Z,42.00
2023-05-02T05:20:43.120Z,42.66
2023-05-02T05:21:14.535Z,42.38
2023-05-02T05:21:45.946Z,42.13
2023-05-02T05:22:17.333Z,42.61
2023-05-02T05:22:48.785Z,42.08
2023-05-02T05:23:20.175Z,42.01
2023-05-02T05:23:51.570Z,42.33
2023-05-02T05:24:22.968Z,42.47
2023-05-02T05:24:54.419Z,42.45
2023-05-02T05:25:25.842Z,41.99
2023-05-02T05:25:57.262Z,41.96
2023-05-02T05:26:28.705Z,41.98
2023-05-02T05:27:00.159Z,42.14
2023-05-02T05:27:31.591Z,42.26
2023-05-02T05:28:03.017Z,42.20
2023-05-02T05:28:34.436Z,42.39
2023-05-02T05:29:05.844Z,42.39
2023-05-02T05:29:37.248Z,42.35
2023-05-02T05:30:08.671Z,42.28
2023-05-02T05:30:40.089Z,42.95
2023-05-02T05:31:11.559Z,42.66
2023-05-02T05:31:43.145Z,42.60
2023-05-02T05:32:14.768Z,42.23
2023-05-02T05:32:46.345Z,42.79
2023-05-02T05:33:18.079Z,43.51
2023-05-02T05:33:49.763Z,43.35
2023-05-02T05:34:21.437Z,42.95
2023-05-02T05:34:52.974Z,42.75
2023-05-02T05:35:24.605Z,43.11
2023-05-02T05:35:56.170Z,42.78
2023-05-02T05:36:27.787Z,42.93
2023-05-02T05:36:59.427Z,42.95
2023-05-02T05:37:31.039Z,42.99
2023-05-02T05:38:02.656Z,43.02
2023-05-02T05:38:34.327Z,42.94
2023-05-02T05:39:05.868Z,43.40
2023-05-02T05:39:37.262Z,43.99
2023-05-02T05:40:08.693Z,43.83
2023-05-02T05:40:40.383Z,43.54
2023-05-02T05:41:11.830Z,43.56
2023-05-02T05:41:43.387Z,44.08
2023-05-02T05:42:14.863Z,43.17
2023-05-02T05:42:48.754Z,43.16
2023-05-02T05:43:20.208Z,42.96
2023-05-02T05:43:51.629Z,43.50
2023-05-02T05:44:23.038Z,43.89
2023-05-02T05:44:54.513Z,43.44
2023-05-02T05:45:25.957Z,43.42
2023-05-02T05:45:57.370Z,43.52
2023-05-02T05:46:28.805Z,43.00
2023-05-02T05:47:00.277Z,43.11
2023-05-02T05:47:31.887Z,42.68
2023-05-02T05:48:03.943Z,43.02
2023-05-02T05:48:35.420Z,43.40
2023-05-02T05:49:06.859Z,42.90
2023-05-02T05:49:39.012Z,42.82
2023-05-02T05:50:10.964Z,42.65
2023-05-02T05:50:43.133Z,43.20
2023-05-02T05:51:15.051Z,43.24
2023-05-02T05:51:47.325Z,42.89
2023-05-02T05:52:20.603Z,43.29
2023-05-02T05:52:55.367Z,43.35
2023-05-02T05:53:27.672Z,42.75
2023-05-02T05:54:02.433Z,43.17
2023-05-02T05:54:34.091Z,43.43
2023-05-02T05:55:05.523Z,44.00
2023-05-02T05:55:37.575Z,43.60
2023-05-02T05:56:09.056Z,43.65
2023-05-02T05:56:40.487Z,44.20
2023-05-02T05:57:12.037Z,43.71
2023-05-02T05:57:43.664Z,43.75
2023-05-02T05:58:15.332Z,44.39
2023-05-02T05:58:46.809Z,44.18
2023-05-02T05:59:18.668Z,44.57
2023-05-02T05:59:51.708Z,44.86
2023-05-02T06:00:23.381Z,44.43
2023-05-02T06:00:55.596Z,45.21
2023-05-02T06:01:27.288Z,44.66
2023-05-02T06:01:59.020Z,45.23
2023-05-02T06:02:30.592Z,44.17
2023-05-02T06:03:03.234Z,44.80
2023-05-02T06:03:35.067Z,43.89
2023-05-02T06:04:06.928Z,44.64
2023-05-02T06:04:38.494Z,44.49
2023-05-02T06:05:10.546Z,44.86
2023-05-02T06:05:42.133Z,44.80
2023-05-02T06:06:13.771Z,44.81
2023-05-02T06:06:45.383Z,44.88
2023-05-02T06:07:16.958Z,44.76
2023-05-02T06:07:48.524Z,44.46
2023-05-02T06:08:20.038Z,44.44
2023-05-02T06:08:51.492Z,45.24
2023-05-02T06:09:22.965Z,44.60
2023-05-02T06:09:54.459Z,44.85
2023-05-02T06:10:25.921Z,44.98
2023-05-02T06:10:57.342Z,45.25
2023-05-02T06:11:28.764Z,45.09
2023-05-02T06:12:00.439Z,44.33
2023-05-02T06:12:32.006Z,44.58
2023-05-02T06:13:03.612Z,44.86
2023-05-02T06:13:35.020Z,44.27
2023-05-02T06:14:06.853Z,44.30
2023-05-02T06:14:38.305Z,44.62
2023-05-02T06:15:09.715Z,44.79
2023-05-02T06:15:41.153Z,44.70
2023-05-02T06:16:12.692Z,44.74
2023-05-02T06:16:44.201Z,44.30
2023-05-02T06:17:15.629Z,44.97
2023-05-02T06:17:47.077Z,45.34
2023-05-02T06:18:18.507Z,45.46
2023-05-02T06:18:49.926Z,45.07
2023-05-02T06:19:21.542Z,45.08
2023-05-02T06:19:52.946Z,45.08
2023-05-02T06:20:24.356Z,45.26
2023-05-02T06:20:55.788Z,44.60
2023-05-02T06:21:27.340Z,44.81
2023-05-02T06:21:58.752Z,44.54
2023-05-02T06:22:30.154Z,45.06
2023-05-02T06:23:01.550Z,45.02
2023-05-02T06:23:33.279Z,45.35
2023-05-02T06:24:04.703Z,45.47
2023-05-02T06:24:36.112Z,45.53
2023-05-02T06:25:07.499Z,44.96
2023-05-02T06:25:38.925Z,45.31
2023-05-02T06:26:10.364Z,45.03
2023-05-02T06:26:41.817Z,44.92
2023-05-02T06:27:13.238Z,45.12
2023-05-02T06:27:44.638Z,45.67
2023-05-02T06:28:16.065Z,45.34
2023-05-02T06:28:47.482Z,45.10
2023-05-02T06:29:18.888Z,45.56
2023-05-02T06:29:50.285Z,45.57
2023-05-02T06:30:21.701Z,45.09
2023-05-02T06:30:53.095Z,45.36
2023-05-02T06:31:24.700Z,44.97
2023-05-02T06:31:56.196Z,45.15
2023-05-02T06:32:27.674Z,44.53
2023-05-02T06:32:59.152Z,45.41
2023-05-02T06:33:32.981Z,45.78
2023-05-02T06:34:04.403Z,45.05
2023-05-02T06:34:35.839Z,45.21
2023-05-02T06:35:07.245Z,44.68
2023-05-02T06:35:38.666Z,44.13
2023-05-02T06:36:10.076Z,44.26
2023-05-02T06:36:41.504Z,44.64
2023-05-02T06:37:13.001Z,44.85
2023-05-02T06:37:44.468Z,44.76
2023-05-02T06:38:15.884Z,44.91
2023-05-02T06:38:47.503Z,44.78
2023-05-02T06:39:18.926Z,45.11
2023-05-02T06:39:50.341Z,45.23
2023-05-02T06:40:21.730Z,44.82
2023-05-02T06:40:53.147Z,44.86
2023-05-02T06:41:24.556Z,44.73
2023-05-02T06:41:56.120Z,44.30
2023-05-02T06:42:27.581Z,44.65
2023-05-02T06:42:59.026Z,44.48
2023-05-02T06:43:30.435Z,44.21
2023-05-02T06:44:01.826Z,44.44
2023-05-02T06:44:33.250Z,44.78
2023-05-02T06:45:04.649Z,44.46
2023-05-02T06:45:36.044Z,44.43